Washington Island, WI

5:08 AM CDT on May 07, 2015 (GMT -0500)
South Shore Drive | | Change Station
CLOSE
Current Station
Personal Weather Station
Location: Washington Island, WI
Elevation: 604 ft
Nearby Weather Stations

Elev 604 ft 45.34 °N, 86.89 °W | Updated 3 minutes ago

Partly Cloudy
Partly Cloudy
47.1 °F
Feels Like 47 °F
N
0.0
Wind Variable Wind from WNW
Gusts 0.0 mph

Today
High -- | Low -- °F
--% Chance of Precip.
Yesterday
High -- | Low -- °F
Precip. -- in
5:27 AM 8:01 PM
Waning Gibbous, 89% visible
Pressure 30.03 in
Visibility 10.0 miles
Clouds Few 9500 ft
Windchill 47 °F
Dew Point 45 °F
Humidity 92%
Rainfall 0.00 in
Snow Depth Not available.
UV 0.0 out of 12
Pollen 10.00 out of 12
Air Quality Not available.
Flu Activity Local Activity
METAR KESC 070955Z AUTO 00000KT 10SM FEW095 06/03 A3003 RMK AO1

More Conditions Fewer Conditions

Pressure 30.03 in
Visibility 10.0 miles
Clouds Few 9500 ft
Windchill 47 °F
Dew Point 45 °F
Humidity 92%
Rainfall 0.00 in
Snow Depth Not available.
UV 0.0 out of 12
Pollen 10.00 out of 12
Air Quality Not available.
Flu Activity Local Activity
METAR KESC 070955Z AUTO 00000KT 10SM FEW095 06/03 A3003 RMK AO1

More Conditions Fewer Conditions

10-Day Weather Forecast

Almanac

Astronomy

May. 07, 2015 Rise Set
Actual Time
Civil Twilight
Nautical Twilight
Astronomical Twilight
Moon
Length of Visible Light
Length of Day
Tomorrow will be .
, % of the Moon is Illuminated

Today's Extremes

State Highs State Lows

Community

WunderPhotos

Upload Photos

1,819,135 photos uploaded!

WunderBlogs® & News

Nearby

Air Quality

  Air Quality AQ Index Pollutant
Not available.

Snow Depth

Station Depth Elevation

Earthquake Activity

City Distance Mag. Time & Date
Minimum magnitude displayed is 2.5.

Coastal Water Temperatures

Place Temperature

Stations

Nearby Weather Stations

Station Location Temp. Windchill Dew Point Humidity Wind Precip. Elev Updated Type